createdAt,value
2019-04-06T00:00:17.016Z,77.11
2019-04-06T00:01:15.990Z,77.11
2019-04-06T00:03:09.763Z,76.15
2019-04-06T00:04:10.564Z,76.06
2019-04-06T00:06:03.048Z,75.91
2019-04-06T00:07:02.683Z,76.01
2019-04-06T00:08:56.488Z,75.91
2019-04-06T00:09:55.364Z,75.91
2019-04-06T00:11:50.284Z,76.39
2019-04-06T00:12:51.138Z,76.01
2019-04-06T00:14:43.920Z,75.72
2019-04-06T00:15:43.583Z,75.72
2019-04-06T00:17:37.147Z,75.53
2019-04-06T00:18:36.253Z,75.43
2019-04-06T00:20:30.107Z,75.53
2019-04-06T00:21:29.218Z,74.58
2019-04-06T00:23:23.789Z,75.05
2019-04-06T00:24:22.617Z,75.05
2019-04-06T00:26:28.246Z,74.96
2019-04-06T00:27:27.840Z,74.68
2019-04-06T00:29:21.125Z,74.49
2019-04-06T00:30:20.818Z,74.58
2019-04-06T00:32:14.626Z,74.49
2019-04-06T00:33:14.544Z,74.39
2019-04-06T00:35:08.574Z,74.58
2019-04-06T00:36:09.822Z,74.49
2019-04-06T00:38:02.053Z,74.11
2019-04-06T00:39:03.022Z,74.01
2019-04-06T00:40:55.787Z,74.15
2019-04-06T00:41:54.931Z,74.15
2019-04-06T00:43:49.482Z,74.15
2019-04-06T00:44:48.106Z,74.05
2019-04-06T00:46:42.168Z,73.57
2019-04-06T00:47:41.784Z,74.15
2019-04-06T00:49:37.169Z,74.15
2019-04-06T00:50:35.581Z,73.48
2019-04-06T00:52:29.904Z,73.38
2019-04-06T00:53:28.472Z,73.48
2019-04-06T00:55:22.341Z,74.01
2019-04-06T00:56:21.471Z,73.57
2019-04-06T00:58:15.323Z,73.76
2019-04-06T00:59:14.260Z,73.38
2019-04-06T01:01:09.276Z,73.48
2019-04-06T01:02:07.701Z,73.38
2019-04-06T01:04:01.731Z,73.57
2019-04-06T01:05:00.231Z,73.67
2019-04-06T01:06:55.686Z,73.48
2019-04-06T01:07:54.836Z,73.38
2019-04-06T01:09:48.143Z,73.38
2019-04-06T01:10:48.576Z,73.57
2019-04-06T01:12:41.571Z,73.38
2019-04-06T01:13:40.727Z,73.57
2019-04-06T01:15:34.694Z,73.29
2019-04-06T01:16:33.844Z,72.91
2019-04-06T01:18:27.768Z,72.91
2019-04-06T01:19:28.216Z,72.53
2019-04-06T01:21:21.981Z,72.72
2019-04-06T01:22:21.147Z,73.10
2019-04-06T01:24:15.395Z,72.72
2019-04-06T01:25:15.823Z,72.53
2019-04-06T01:27:07.890Z,72.53
2019-04-06T01:28:07.840Z,72.63
2019-04-06T01:30:01.362Z,73.19
2019-04-06T01:31:00.415Z,73.48
2019-04-06T01:32:55.849Z,73.67
2019-04-06T01:33:56.049Z,73.00
2019-04-06T01:35:48.315Z,73.38
2019-04-06T01:36:48.370Z,72.81
2019-04-06T01:38:53.992Z,73.00
2019-04-06T01:39:54.415Z,73.00
2019-04-06T01:41:47.230Z,72.91
2019-04-06T01:42:46.791Z,72.63
2019-04-06T01:44:58.604Z,72.09
2019-04-06T01:45:57.584Z,72.00
2019-04-06T01:47:52.141Z,71.90
2019-04-06T01:48:51.548Z,72.09
2019-04-06T01:50:44.554Z,71.81
2019-04-06T01:51:44.571Z,71.71
2019-04-06T01:53:39.671Z,72.38
2019-04-06T01:54:38.610Z,72.28
2019-04-06T01:56:32.098Z,73.61
2019-04-06T01:57:31.962Z,73.57
2019-04-06T01:59:25.564Z,74.15
2019-04-06T02:00:25.291Z,73.96
2019-04-06T02:02:18.553Z,72.56
2019-04-06T02:03:18.104Z,72.28
2019-04-06T02:05:12.783Z,72.00
2019-04-06T02:06:11.154Z,71.33
2019-04-06T02:08:06.128Z,72.00
2019-04-06T02:09:05.918Z,71.52
2019-04-06T02:11:00.101Z,73.14
2019-04-06T02:11:59.587Z,73.23
2019-04-06T02:13:53.699Z,73.33
2019-04-06T02:14:53.099Z,73.14
2019-04-06T02:16:46.625Z,72.85
2019-04-06T02:17:46.561Z,72.47
2019-04-06T02:19:52.332Z,72.56
2019-04-06T02:20:51.708Z,72.38
2019-04-06T02:22:45.763Z,72.38
2019-04-06T02:23:46.676Z,72.38
2019-04-06T02:25:39.391Z,72.56
2019-04-06T02:26:38.878Z,71.90
2019-04-06T02:28:33.943Z,72.19
2019-04-06T02:29:33.059Z,71.71
2019-04-06T02:31:25.765Z,72.19
2019-04-06T02:32:26.183Z,71.71
2019-04-06T02:34:19.202Z,72.28
2019-04-06T02:35:19.648Z,71.62
2019-04-06T02:37:12.164Z,72.00
2019-04-06T02:38:11.205Z,72.00
2019-04-06T02:40:07.440Z,71.33
2019-04-06T02:41:04.148Z,71.43
2019-04-06T02:42:59.090Z,71.43
2019-04-06T02:43:59.834Z,72.70
2019-04-06T02:45:52.835Z,72.66
2019-04-06T02:46:52.465Z,72.47
2019-04-06T02:48:44.999Z,72.28
2019-04-06T02:49:44.937Z,72.09
2019-04-06T02:51:38.503Z,71.56
2019-04-06T02:52:37.455Z,71.52
2019-04-06T02:54:32.440Z,71.46
2019-04-06T02:55:32.358Z,71.08
2019-04-06T02:57:25.905Z,71.27
2019-04-06T02:58:25.336Z,71.46
2019-04-06T03:00:19.387Z,71.46
2019-04-06T03:01:18.790Z,72.13
2019-04-06T03:03:11.310Z,72.03
2019-04-06T03:04:11.013Z,71.56
2019-04-06T03:06:05.004Z,71.56
2019-04-06T03:07:04.659Z,71.56
2019-04-06T03:08:57.876Z,71.46
2019-04-06T03:09:57.213Z,71.75
2019-04-06T03:11:50.707Z,72.13
2019-04-06T03:12:50.957Z,71.75
2019-04-06T03:14:45.195Z,71.84
2019-04-06T03:15:45.877Z,71.18
2019-04-06T03:17:38.153Z,70.89
2019-04-06T03:18:38.069Z,71.08
2019-04-06T03:20:31.161Z,72.60
2019-04-06T03:21:30.819Z,72.60
2019-04-06T03:23:25.365Z,72.99
2019-04-06T03:24:24.073Z,73.14
2019-04-06T03:26:19.920Z,73.27
2019-04-06T03:27:19.069Z,73.08
2019-04-06T03:29:12.186Z,72.60
2019-04-06T03:30:11.415Z,72.60
2019-04-06T03:32:04.554Z,72.32
2019-04-06T03:33:04.992Z,71.75
2019-04-06T03:34:59.032Z,72.32
2019-04-06T03:35:59.443Z,71.94
2019-04-06T03:37:52.524Z,72.60
2019-04-06T03:38:51.863Z,72.70
2019-04-06T03:40:45.922Z,72.41
2019-04-06T03:41:45.921Z,71.84
2019-04-06T03:43:38.398Z,72.41
2019-04-06T03:44:38.179Z,72.60
2019-04-06T03:46:31.937Z,72.22
2019-04-06T03:47:32.851Z,72.13
2019-04-06T03:49:25.088Z,71.75
2019-04-06T03:50:24.475Z,71.08
2019-04-06T03:52:17.377Z,70.89
2019-04-06T03:53:17.561Z,71.18
2019-04-06T03:55:10.383Z,71.84
2019-04-06T03:56:10.774Z,71.75
2019-04-06T03:58:03.301Z,71.75
2019-04-06T03:59:03.199Z,71.46
2019-04-06T04:00:57.260Z,71.75
2019-04-06T04:01:55.762Z,72.13
2019-04-06T04:03:49.201Z,71.66
2019-04-06T04:04:49.699Z,71.66
2019-04-06T04:06:44.201Z,71.75
2019-04-06T04:07:43.279Z,72.13
2019-04-06T04:09:36.642Z,71.94
2019-04-06T04:10:37.849Z,72.41
2019-04-06T04:12:29.595Z,72.41
2019-04-06T04:13:29.486Z,73.27
2019-04-06T04:15:23.050Z,72.60
2019-04-06T04:16:22.111Z,72.41
2019-04-06T04:18:16.273Z,72.60
2019-04-06T04:19:15.145Z,72.51
2019-04-06T04:21:09.951Z,72.32
2019-04-06T04:22:09.813Z,72.60
2019-04-06T04:24:03.011Z,73.27
2019-04-06T04:25:02.565Z,73.27
2019-04-06T04:26:56.373Z,74.12
2019-04-06T04:27:55.616Z,74.12
2019-04-06T04:29:48.838Z,73.55
2019-04-06T04:30:48.723Z,73.18
2019-04-06T04:32:41.776Z,73.46
2019-04-06T04:33:41.359Z,73.55
2019-04-06T04:35:34.740Z,74.03
2019-04-06T04:36:35.209Z,74.12
2019-04-06T04:38:27.825Z,73.65
2019-04-06T04:39:28.205Z,73.65
2019-04-06T04:41:20.749Z,74.03
2019-04-06T04:42:20.641Z,73.65
2019-04-06T04:44:14.146Z,73.65
2019-04-06T04:45:14.171Z,74.03
2019-04-06T04:47:07.220Z,74.22
2019-04-06T04:48:06.707Z,74.03
2019-04-06T04:50:00.672Z,74.37
2019-04-06T04:50:59.761Z,74.69
2019-04-06T04:52:53.079Z,74.56
2019-04-06T04:53:53.036Z,73.80
2019-04-06T04:55:46.087Z,73.55
2019-04-06T04:56:45.569Z,74.03
2019-04-06T04:58:41.009Z,74.03
2019-04-06T04:59:40.253Z,74.31
2019-04-06T05:01:34.323Z,73.84
2019-04-06T05:02:33.048Z,73.55
2019-04-06T05:04:27.177Z,73.65
2019-04-06T05:05:26.124Z,74.03
2019-04-06T05:07:19.989Z,73.74
2019-04-06T05:08:19.918Z,73.55
2019-04-06T05:10:13.084Z,73.46
2019-04-06T05:11:15.492Z,73.93
2019-04-06T05:13:06.239Z,75.55
2019-04-06T05:14:05.891Z,74.79
2019-04-06T05:15:59.775Z,75.45
2019-04-06T05:16:59.776Z,75.84
2019-04-06T05:18:52.766Z,76.69
2019-04-06T05:19:52.688Z,77.36
2019-04-06T05:21:45.241Z,77.36
2019-04-06T05:22:45.071Z,77.36
2019-04-06T05:24:39.258Z,77.17
2019-04-06T05:25:38.938Z,76.78
2019-04-06T05:27:32.220Z,77.55
2019-04-06T05:28:32.188Z,78.11
2019-04-06T05:30:25.164Z,78.08
2019-04-06T05:31:24.225Z,77.60
2019-04-06T05:33:18.006Z,76.59
2019-04-06T05:34:17.655Z,76.69
2019-04-06T05:36:11.113Z,76.69
2019-04-06T05:37:10.686Z,77.26
2019-04-06T05:39:04.579Z,76.69
2019-04-06T05:40:04.509Z,76.50
2019-04-06T05:41:57.679Z,76.21
2019-04-06T05:42:56.644Z,76.12
2019-04-06T05:44:51.521Z,78.11
2019-04-06T05:45:51.064Z,77.07
2019-04-06T05:47:44.848Z,77.17
2019-04-06T05:48:44.139Z,77.45
2019-04-06T05:50:37.978Z,77.36
2019-04-06T05:51:37.355Z,76.78
2019-04-06T05:52:37.067Z,76.40
2019-04-06T05:53:36.920Z,77.07
2019-04-06T05:54:36.892Z,79.44
2019-04-06T05:55:37.960Z,78.69
2019-04-06T05:56:36.652Z,82.10
2019-04-06T05:57:37.567Z,82.77
2019-04-06T05:58:40.294Z,82.77
2019-04-06T05:59:39.912Z,82.10
2019-04-06T06:00:40.141Z,82.20
2019-04-06T06:01:40.276Z,82.10
2019-04-06T06:02:40.292Z,80.96
2019-04-06T06:03:40.147Z,80.58
2019-04-06T06:04:36.383Z,80.11
2019-04-06T06:05:36.363Z,80.11
2019-04-06T06:06:36.298Z,79.63
2019-04-06T06:07:36.285Z,80.77
2019-04-06T06:08:36.556Z,81.54
2019-04-06T06:09:36.401Z,80.58
2019-04-06T06:10:38.303Z,80.11
2019-04-06T06:11:36.097Z,79.16
2019-04-06T06:12:36.072Z,78.11
2019-04-06T06:13:36.043Z,78.88
2019-04-06T06:14:35.997Z,79.35
2019-04-06T06:15:36.152Z,78.63
2019-04-06T06:16:35.911Z,79.68
2019-04-06T06:17:35.882Z,78.82
2019-04-06T06:18:35.829Z,78.72
2019-04-06T06:19:35.800Z,81.58
2019-04-06T06:20:35.774Z,82.15
2019-04-06T06:21:35.726Z,81.96
2019-04-06T06:22:35.706Z,83.48
2019-04-06T06:23:35.661Z,84.05
2019-04-06T06:24:35.618Z,84.43
2019-04-06T06:25:35.574Z,86.38
2019-04-06T06:26:35.772Z,86.33
2019-04-06T06:27:35.510Z,86.00
2019-04-06T06:28:35.452Z,85.57
2019-04-06T06:29:35.461Z,85.81
2019-04-06T06:30:35.377Z,85.57
2019-04-06T06:31:35.380Z,86.90
2019-04-06T06:32:35.312Z,87.09
2019-04-06T06:33:35.589Z,85.28
2019-04-06T06:34:35.227Z,84.05
2019-04-06T06:35:35.304Z,85.86
2019-04-06T06:36:35.147Z,85.95
2019-04-06T06:37:35.150Z,87.57
2019-04-06T06:38:35.108Z,88.52
2019-04-06T06:39:35.059Z,86.90
2019-04-06T06:40:35.049Z,88.52
2019-04-06T06:41:34.964Z,88.90
2019-04-06T06:42:34.994Z,87.47
2019-04-06T06:43:34.914Z,86.90
2019-04-06T06:44:34.858Z,86.90
2019-04-06T06:45:34.833Z,87.95
2019-04-06T06:46:34.822Z,89.56
2019-04-06T06:47:34.801Z,91.85
2019-04-06T06:48:34.708Z,90.61
2019-04-06T06:49:34.656Z,91.22
2019-04-06T06:50:34.769Z,89.99
2019-04-06T06:51:34.617Z,89.32
2019-04-06T06:52:34.785Z,88.46
2019-04-06T06:53:34.647Z,88.37
2019-04-06T06:54:34.547Z,88.75
2019-04-06T06:55:34.440Z,89.23
2019-04-06T06:56:34.417Z,90.80
2019-04-06T06:57:34.432Z,90.99
2019-04-06T06:58:34.437Z,93.98
2019-04-06T06:59:34.318Z,99.99
2019-04-06T07:00:34.255Z,99.99
2019-04-06T07:01:34.312Z,99.99
2019-04-06T07:02:34.186Z,99.99
2019-04-06T07:03:34.198Z,99.99
2019-04-06T07:04:34.129Z,99.99
2019-04-06T07:05:34.094Z,99.99
2019-04-06T07:06:34.117Z,99.99
2019-04-06T07:07:34.126Z,99.99
2019-04-06T07:08:34.027Z,99.99
2019-04-06T07:09:34.129Z,99.99
2019-04-06T07:10:33.918Z,99.99
2019-04-06T07:11:33.872Z,99.99
2019-04-06T07:12:33.853Z,99.99
2019-04-06T07:13:33.801Z,99.99
2019-04-06T07:14:33.778Z,99.99
2019-04-06T07:15:34.024Z,99.99
2019-04-06T07:16:33.708Z,99.99
2019-04-06T07:17:33.665Z,99.99
2019-04-06T07:18:33.651Z,99.99
2019-04-06T07:19:33.575Z,99.99
2019-04-06T07:20:33.604Z,99.99
2019-04-06T07:21:33.527Z,99.99
2019-04-06T07:22:33.476Z,99.99
2019-04-06T07:23:33.446Z,99.99
2019-04-06T07:24:33.427Z,99.99
2019-04-06T07:25:33.383Z,99.99
2019-04-06T07:26:33.359Z,99.99
2019-04-06T07:27:33.321Z,99.99
2019-04-06T07:28:38.394Z,99.99
2019-04-06T07:29:33.280Z,99.99
2019-04-06T07:30:33.221Z,99.99
2019-04-06T07:31:33.164Z,99.99
2019-04-06T07:32:33.150Z,99.99
2019-04-06T07:33:33.176Z,99.99
2019-04-06T07:34:33.056Z,99.99
2019-04-06T07:35:33.145Z,99.99
2019-04-06T07:36:33.026Z,99.99
2019-04-06T07:37:32.978Z,99.99
2019-04-06T07:38:32.917Z,99.99
2019-04-06T07:39:32.893Z,99.99
2019-04-06T07:40:32.843Z,99.99
2019-04-06T07:41:32.861Z,99.99
2019-04-06T07:42:32.836Z,99.99
2019-04-06T07:43:32.763Z,99.99
2019-04-06T07:44:32.769Z,99.99
2019-04-06T07:45:32.748Z,99.99
2019-04-06T07:46:32.720Z,99.99
2019-04-06T07:47:32.615Z,99.99
2019-04-06T07:48:32.567Z,99.99
2019-04-06T07:49:32.539Z,99.99
2019-04-06T07:50:32.549Z,99.99
2019-04-06T07:51:32.543Z,99.99
2019-04-06T07:52:32.465Z,99.99
2019-04-06T07:53:33.224Z,99.99
2019-04-06T07:54:32.530Z,99.99
2019-04-06T07:55:32.380Z,99.99
2019-04-06T07:56:32.343Z,99.99
2019-04-06T07:57:32.312Z,98.38
2019-04-06T07:58:32.321Z,94.49
2019-04-06T07:59:32.475Z,91.91
2019-04-06T08:00:32.192Z,98.19
2019-04-06T08:01:32.402Z,96.89
2019-04-06T08:02:32.130Z,99.99
2019-04-06T08:03:32.130Z,99.99
2019-04-06T08:04:32.113Z,99.99
2019-04-06T08:05:32.045Z,99.99
2019-04-06T08:06:32.037Z,99.99
2019-04-06T08:07:32.028Z,99.39
2019-04-06T08:08:32.000Z,99.99
2019-04-06T08:09:31.965Z,99.99
2019-04-06T08:10:31.914Z,99.99
2019-04-06T08:11:31.940Z,99.99
2019-04-06T08:12:31.893Z,99.99
2019-04-06T08:13:31.834Z,95.75
2019-04-06T08:14:31.819Z,91.75
2019-04-06T08:15:31.938Z,90.45
2019-04-06T08:16:31.739Z,87.96
2019-04-06T08:17:31.910Z,86.47
2019-04-06T08:18:31.703Z,87.19
2019-04-06T08:19:31.846Z,88.59
2019-04-06T08:20:31.642Z,91.33
2019-04-06T08:21:31.623Z,88.98
2019-04-06T08:22:31.628Z,89.60
2019-04-06T08:23:31.570Z,89.60
2019-04-06T08:24:31.584Z,87.24
2019-04-06T08:25:31.530Z,86.22
2019-04-06T08:26:31.596Z,85.69
2019-04-06T08:27:31.539Z,83.84
2019-04-06T08:28:31.449Z,88.07
2019-04-06T08:29:31.413Z,89.69
2019-04-06T08:30:31.410Z,90.66
2019-04-06T08:31:31.388Z,88.34
2019-04-06T08:32:31.360Z,88.15
2019-04-06T08:33:31.366Z,86.57
2019-04-06T08:34:31.304Z,87.96
2019-04-06T08:35:31.439Z,85.85
2019-04-06T08:36:31.383Z,88.21
2019-04-06T08:37:31.283Z,91.96
2019-04-06T08:38:31.480Z,92.53
2019-04-06T08:39:31.204Z,91.61
2019-04-06T08:40:31.222Z,94.01
2019-04-06T08:41:31.146Z,91.81
2019-04-06T08:42:31.163Z,92.91
2019-04-06T08:43:31.124Z,88.54
2019-04-06T08:44:31.193Z,88.93
2019-04-06T08:45:31.059Z,87.72
2019-04-06T08:46:31.010Z,89.40
2019-04-06T08:47:31.516Z,85.75
2019-04-06T08:48:30.982Z,86.04
2019-04-06T08:49:31.468Z,85.75
2019-04-06T08:50:30.927Z,85.84
2019-04-06T08:51:31.003Z,87.38
2019-04-06T08:52:31.095Z,85.22
2019-04-06T08:53:30.868Z,86.29
2019-04-06T08:54:30.859Z,88.35
2019-04-06T08:55:30.847Z,90.61
2019-04-06T08:56:30.782Z,88.45
2019-04-06T08:57:30.811Z,87.49
2019-04-06T08:58:30.775Z,88.30
2019-04-06T08:59:30.722Z,85.71
2019-04-06T09:00:30.702Z,85.66
2019-04-06T09:01:30.698Z,85.85
2019-04-06T09:02:30.749Z,85.47
2019-04-06T09:03:30.662Z,87.38
2019-04-06T09:04:30.646Z,86.69
2019-04-06T09:05:30.603Z,80.96
2019-04-06T09:06:30.878Z,77.76
2019-04-06T09:07:31.354Z,76.36
2019-04-06T09:08:30.552Z,74.43
2019-04-06T09:09:30.538Z,76.32
2019-04-06T09:10:30.532Z,75.16
2019-04-06T09:11:30.477Z,74.45
2019-04-06T09:12:30.473Z,75.99
2019-04-06T09:13:30.445Z,75.99
2019-04-06T09:14:30.550Z,76.23
2019-04-06T09:15:30.404Z,74.82
2019-04-06T09:16:30.610Z,75.05
2019-04-06T09:17:30.341Z,74.47
2019-04-06T09:18:30.330Z,71.96
2019-04-06T09:19:30.319Z,73.54
2019-04-06T09:20:30.380Z,73.28
2019-04-06T09:21:30.252Z,71.03
2019-04-06T09:22:30.256Z,70.61
2019-04-06T09:23:30.308Z,71.25
2019-04-06T09:24:30.204Z,72.83
2019-04-06T09:25:30.266Z,72.61
2019-04-06T09:26:30.165Z,70.87
2019-04-06T09:27:30.171Z,70.45
2019-04-06T09:28:30.124Z,70.16
2019-04-06T09:29:30.114Z,70.42
2019-04-06T09:30:30.101Z,69.49
2019-04-06T09:31:30.286Z,65.92
2019-04-06T09:32:30.091Z,64.56
2019-04-06T09:33:30.028Z,66.50
2019-04-06T09:34:31.132Z,64.53
2019-04-06T09:35:30.041Z,64.40
2019-04-06T09:36:30.043Z,63.09
2019-04-06T09:37:30.074Z,67.20
2019-04-06T09:38:29.957Z,67.81
2019-04-06T09:39:29.914Z,69.57
2019-04-06T09:40:30.274Z,69.87
2019-04-06T09:41:29.886Z,69.51
2019-04-06T09:42:29.862Z,69.13
2019-04-06T09:43:29.929Z,68.42
2019-04-06T09:44:29.833Z,69.31
2019-04-06T09:45:30.100Z,70.21
2019-04-06T09:46:29.791Z,70.41
2019-04-06T09:47:29.776Z,69.22
2019-04-06T09:48:29.748Z,69.15
2019-04-06T09:49:29.700Z,69.51
2019-04-06T09:50:29.961Z,70.18
2019-04-06T09:51:29.676Z,70.18
2019-04-06T09:52:29.645Z,70.76
2019-04-06T09:53:29.711Z,70.09
2019-04-06T09:54:29.622Z,70.62
2019-04-06T09:55:30.298Z,71.97
2019-04-06T09:56:29.569Z,70.60
2019-04-06T09:57:29.551Z,70.18
2019-04-06T09:58:29.782Z,69.96
2019-04-06T09:59:36.246Z,69.93
2019-04-06T10:00:29.512Z,68.00
2019-04-06T10:01:38.152Z,68.00
2019-04-06T10:02:29.464Z,67.03
2019-04-06T10:03:29.695Z,69.15
2019-04-06T10:04:29.444Z,68.04
2019-04-06T10:05:29.793Z,66.62
2019-04-06T10:06:32.002Z,64.40
2019-04-06T10:07:29.460Z,65.88
2019-04-06T10:08:29.323Z,67.36
2019-04-06T10:09:29.375Z,66.17
2019-04-06T10:10:29.310Z,64.43
2019-04-06T10:11:29.285Z,64.76
2019-04-06T10:12:29.250Z,63.28
2019-04-06T10:13:29.243Z,65.50
2019-04-06T10:14:29.501Z,67.17
2019-04-06T10:15:29.459Z,65.08
2019-04-06T10:16:29.308Z,63.18
2019-04-06T10:17:29.161Z,63.50
2019-04-06T10:18:29.163Z,62.86
2019-04-06T10:19:29.190Z,65.69
2019-04-06T10:20:29.136Z,63.95
2019-04-06T10:21:29.078Z,63.76
2019-04-06T10:22:29.066Z,63.57
2019-04-06T10:23:29.117Z,63.09
2019-04-06T10:24:28.985Z,63.70
2019-04-06T10:25:28.976Z,65.08
2019-04-06T10:26:28.990Z,62.73
2019-04-06T10:27:28.974Z,63.40
2019-04-06T10:28:29.034Z,61.95
2019-04-06T10:29:28.894Z,60.09
2019-04-06T10:30:29.076Z,60.89
2019-04-06T10:31:28.880Z,60.09
2019-04-06T10:32:28.836Z,60.02
2019-04-06T10:33:28.822Z,61.25
2019-04-06T10:34:29.169Z,61.22
2019-04-06T10:35:28.945Z,61.44
2019-04-06T10:36:31.297Z,62.89
2019-04-06T10:37:28.726Z,64.24
2019-04-06T10:38:28.706Z,65.82
2019-04-06T10:39:28.717Z,62.82
2019-04-06T10:40:28.700Z,63.57
2019-04-06T10:41:28.651Z,63.92
2019-04-06T10:42:29.571Z,63.79
2019-04-06T10:43:28.614Z,65.98
2019-04-06T10:44:28.591Z,65.88
2019-04-06T10:45:28.602Z,63.09
2019-04-06T10:46:28.633Z,64.18
2019-04-06T10:47:28.540Z,62.41
2019-04-06T10:48:28.512Z,62.48
2019-04-06T10:49:28.637Z,63.18
2019-04-06T10:50:28.499Z,63.21
2019-04-06T10:51:28.499Z,61.35
2019-04-06T10:52:28.625Z,62.76
2019-04-06T10:53:28.408Z,61.38
2019-04-06T10:54:28.659Z,62.15
2019-04-06T10:55:28.361Z,63.43
2019-04-06T10:56:28.581Z,63.34
2019-04-06T10:57:28.347Z,60.86
2019-04-06T10:58:28.304Z,62.41
2019-04-06T10:59:28.534Z,62.66
2019-04-06T11:00:28.270Z,62.86
2019-04-06T11:01:28.240Z,63.06
2019-04-06T11:02:28.204Z,62.66
2019-04-06T11:03:28.187Z,63.06
2019-04-06T11:04:28.397Z,62.51
2019-04-06T11:05:28.158Z,63.50
2019-04-06T11:06:28.133Z,63.02
2019-04-06T11:07:28.126Z,60.58
2019-04-06T11:08:28.087Z,62.09
2019-04-06T11:09:28.147Z,65.37
2019-04-06T11:10:28.100Z,64.24
2019-04-06T11:11:28.270Z,62.89
2019-04-06T11:12:28.023Z,63.28
2019-04-06T11:13:28.420Z,62.54
2019-04-06T11:14:28.012Z,63.43
2019-04-06T11:15:28.180Z,62.63
2019-04-06T11:16:27.941Z,63.24
2019-04-06T11:17:27.933Z,61.67
2019-04-06T11:18:28.166Z,62.76
2019-04-06T11:19:28.163Z,62.41
2019-04-06T11:20:27.839Z,63.95
2019-04-06T11:21:27.803Z,64.37
2019-04-06T11:22:27.780Z,63.67
2019-04-06T11:23:27.765Z,64.76
2019-04-06T11:24:27.742Z,64.59
2019-04-06T11:25:27.756Z,65.75
2019-04-06T11:26:27.724Z,64.05
2019-04-06T11:27:27.777Z,61.63
2019-04-06T11:28:27.672Z,59.99
2019-04-06T11:29:27.693Z,59.93
2019-04-06T11:30:27.904Z,61.57
2019-04-06T11:31:27.847Z,60.22
2019-04-06T11:32:27.579Z,59.67
2019-04-06T11:33:27.841Z,61.60
2019-04-06T11:34:27.594Z,61.44
2019-04-06T11:35:27.520Z,61.34
2019-04-06T11:36:27.505Z,60.38
2019-04-06T11:37:27.462Z,59.31
2019-04-06T11:38:27.738Z,58.32
2019-04-06T11:39:27.677Z,58.80
2019-04-06T11:40:27.397Z,60.83
2019-04-06T11:41:27.628Z,60.16
2019-04-06T11:42:27.372Z,59.28
2019-04-06T11:43:27.575Z,59.06
2019-04-06T11:44:27.324Z,60.99
2019-04-06T11:45:27.294Z,58.97
2019-04-06T11:46:27.275Z,58.68
2019-04-06T11:47:27.256Z,58.75
2019-04-06T11:48:27.244Z,60.00
2019-04-06T11:49:27.211Z,59.80
2019-04-06T11:50:27.271Z,58.42
2019-04-06T11:51:27.178Z,59.03
2019-04-06T11:52:27.193Z,61.16
2019-04-06T11:53:27.272Z,61.06
2019-04-06T11:54:27.249Z,59.80
2019-04-06T11:55:27.254Z,61.83
2019-04-06T11:56:27.060Z,60.13
2019-04-06T11:57:27.098Z,63.24
2019-04-06T11:58:27.080Z,60.03
2019-04-06T11:59:26.993Z,60.48
2019-04-06T12:00:28.046Z,60.89
2019-04-06T12:01:27.007Z,60.28
2019-04-06T12:02:27.129Z,59.42
2019-04-06T12:03:26.910Z,59.58
2019-04-06T12:04:27.146Z,59.65
2019-04-06T12:05:27.189Z,61.41
2019-04-06T12:06:26.838Z,59.45
2019-04-06T12:07:26.822Z,60.90
2019-04-06T12:08:26.853Z,62.12
2019-04-06T12:09:27.799Z,64.18
2019-04-06T12:12:23.461Z,61.13
2019-04-06T12:13:23.559Z,59.87
2019-04-06T12:15:16.018Z,61.58
2019-04-06T12:16:17.006Z,62.63
2019-04-06T12:18:17.472Z,63.21
2019-04-06T12:24:32.247Z,63.02
2019-04-06T12:28:44.347Z,60.74
2019-04-06T12:29:43.527Z,59.30
2019-04-06T12:31:37.621Z,60.93
2019-04-06T12:32:37.882Z,60.74
2019-04-06T12:34:31.067Z,61.00
2019-04-06T12:35:30.737Z,61.19
2019-04-06T12:37:25.257Z,61.48
2019-04-06T12:38:25.497Z,62.18
2019-04-06T12:40:18.701Z,61.38
2019-04-06T12:41:18.284Z,61.48
2019-04-06T12:43:11.425Z,62.54
2019-04-06T12:44:11.270Z,60.52
2019-04-06T12:45:11.598Z,62.48
2019-04-06T12:46:11.486Z,62.66
2019-04-06T12:47:11.269Z,62.35
2019-04-06T12:48:11.322Z,64.21
2019-04-06T12:49:11.277Z,64.53
2019-04-06T12:50:11.301Z,60.51
2019-04-06T12:51:11.216Z,61.47
2019-04-06T12:52:11.287Z,61.16
2019-04-06T12:53:11.436Z,61.44
2019-04-06T12:54:11.155Z,61.22
2019-04-06T12:55:11.171Z,62.09
2019-04-06T12:56:11.130Z,62.57
2019-04-06T12:57:11.335Z,61.03
2019-04-06T12:58:11.213Z,61.06
2019-04-06T12:59:11.128Z,61.16
2019-04-06T13:00:09.912Z,59.84
2019-04-06T13:01:10.923Z,60.23
2019-04-06T13:02:11.165Z,62.76
2019-04-06T13:03:10.501Z,61.68
2019-04-06T13:04:10.899Z,61.96
2019-04-06T13:05:12.346Z,63.98
2019-04-06T13:07:10.693Z,63.31
2019-04-06T13:08:10.307Z,63.89
2019-04-06T13:10:07.334Z,63.15
2019-04-06T13:11:04.831Z,62.57
2019-04-06T13:12:58.580Z,62.93
2019-04-06T13:13:58.552Z,62.73
2019-04-06T13:15:53.189Z,63.06
2019-04-06T13:16:51.972Z,63.15
2019-04-06T13:18:46.420Z,62.18
2019-04-06T13:19:45.238Z,61.29
2019-04-06T13:21:40.851Z,62.83
2019-04-06T13:22:39.606Z,62.54
2019-04-06T13:24:34.022Z,63.21
2019-04-06T13:25:33.136Z,62.15
2019-04-06T13:27:26.588Z,63.06
2019-04-06T13:28:26.411Z,63.15
2019-04-06T13:30:19.032Z,62.15
2019-04-06T13:31:20.134Z,62.93
2019-04-06T13:33:13.171Z,62.38
2019-04-06T13:34:11.958Z,61.19
2019-04-06T13:36:05.623Z,62.25
2019-04-06T13:37:05.756Z,63.12
2019-04-06T13:38:59.268Z,64.89
2019-04-06T13:39:57.583Z,64.40
2019-04-06T13:41:51.934Z,63.60
2019-04-06T13:42:51.396Z,63.50
2019-04-06T13:44:45.300Z,65.72
2019-04-06T13:45:44.124Z,65.47
2019-04-06T13:47:41.398Z,63.79
2019-04-06T13:48:41.986Z,64.28
2019-04-06T13:50:35.055Z,63.98
2019-04-06T13:51:33.247Z,64.86
2019-04-06T13:53:27.979Z,65.14
2019-04-06T13:54:27.902Z,64.08
2019-04-06T13:56:22.560Z,64.05
2019-04-06T13:57:20.997Z,65.59
2019-04-06T13:59:14.788Z,65.40
2019-04-06T14:00:15.260Z,65.40
2019-04-06T14:02:09.307Z,65.53
2019-04-06T14:03:06.696Z,65.85
2019-04-06T14:05:01.699Z,67.81
2019-04-06T14:06:01.131Z,67.33
2019-04-06T14:07:57.060Z,65.81
2019-04-06T14:10:53.340Z,66.17
2019-04-06T14:11:51.976Z,66.36
2019-04-06T14:13:45.885Z,67.26
2019-04-06T14:14:45.412Z,66.97
2019-04-06T14:16:39.800Z,65.40
2019-04-06T14:17:40.157Z,66.55
2019-04-06T14:18:39.662Z,67.84
2019-04-06T14:19:38.279Z,66.88
2019-04-06T14:20:39.609Z,69.51
2019-04-06T14:21:39.345Z,67.10
2019-04-06T14:22:39.725Z,65.53
2019-04-06T14:23:39.436Z,67.07
2019-04-06T14:24:39.264Z,68.04
2019-04-06T14:25:39.505Z,68.42
2019-04-06T14:26:38.167Z,67.74
2019-04-06T14:27:39.352Z,67.07
2019-04-06T14:28:38.642Z,67.55
2019-04-06T14:29:38.601Z,68.58
2019-04-06T14:30:38.634Z,69.93
2019-04-06T14:31:38.620Z,69.45
2019-04-06T14:32:39.056Z,70.02
2019-04-06T14:33:39.014Z,70.12
2019-04-06T14:34:40.471Z,70.02
2019-04-06T14:35:39.079Z,70.66
2019-04-06T14:36:39.051Z,70.76
2019-04-06T14:38:32.245Z,71.56
2019-04-06T14:39:32.185Z,71.76
2019-04-06T14:41:25.142Z,71.98
2019-04-06T14:42:24.370Z,71.98
2019-04-06T14:44:18.720Z,72.05
2019-04-06T14:45:19.182Z,72.33
2019-04-06T14:47:12.666Z,70.98
2019-04-06T14:48:11.114Z,71.08
2019-04-06T14:50:07.075Z,71.37
2019-04-06T14:51:05.730Z,71.76
2019-04-06T14:52:59.981Z,70.79
2019-04-06T14:53:58.864Z,70.50
2019-04-06T14:55:53.561Z,71.76
2019-04-06T14:56:53.089Z,70.64
2019-04-06T14:58:46.113Z,69.93
2019-04-06T14:59:44.830Z,70.02
2019-04-06T15:01:48.935Z,70.89
2019-04-06T15:02:38.534Z,71.18
2019-04-06T15:04:34.390Z,71.81
2019-04-06T15:05:33.760Z,71.88
2019-04-06T15:07:27.510Z,74.34
2019-04-06T15:08:26.319Z,75.02
2019-04-06T15:10:19.739Z,75.02
2019-04-06T15:11:20.552Z,74.86
2019-04-06T15:13:13.096Z,75.21
2019-04-06T15:14:13.364Z,74.54
2019-04-06T15:15:13.762Z,74.25
2019-04-06T15:16:12.724Z,75.02
2019-04-06T15:17:12.883Z,74.25
2019-04-06T15:18:13.284Z,74.44
2019-04-06T15:19:11.991Z,75.98
2019-04-06T15:20:13.475Z,75.98
2019-04-06T15:21:13.228Z,76.17
2019-04-06T15:23:14.160Z,76.07
2019-04-06T15:24:13.323Z,75.21
2019-04-06T15:25:13.505Z,76.46
2019-04-06T15:26:11.921Z,75.59
2019-04-06T15:27:11.396Z,75.98
2019-04-06T15:28:10.842Z,75.49
2019-04-06T15:29:10.853Z,76.36
2019-04-06T15:30:11.033Z,75.79
2019-04-06T15:31:11.133Z,76.56
2019-04-06T15:32:11.006Z,75.59
2019-04-06T15:33:11.144Z,75.69